Time;durP1;ratioP1;P1;durP2;ratioP2;P2;SDS_P1;SDS_P2;PMS_P1;PMS_P2;Temp;Humidity;BMP_temperature;BMP_pressure;BME280_temperature;BME280_humidity;BME280_pressure;Samples;Min_cycle;Max_cycle;Signal;HPM_P1;HPM_P2
2024/01/08 00:04:20;;;;;;;0.20;0.20;;;;;;;2.38;55.34;101179.69;10426425;28;20053;-72
2024/01/08 00:09:22;;;;;;;2.35;0.40;;;;;;;2.38;55.66;101186.78;10424842;28;20060;-72
2024/01/08 00:14:23;;;;;;;0.40;0.20;;;;;;;2.41;55.00;101186.59;10409591;28;20045;-72
2024/01/08 00:19:25;;;;;;;0.57;0.30;;;;;;;2.41;55.64;101189.25;10428516;28;20064;-72
2024/01/08 00:24:26;;;;;;;0.40;0.30;;;;;;;2.45;55.18;101192.53;10411121;28;20571;-70
2024/01/08 00:29:28;;;;;;;1.65;0.93;;;;;;;2.44;54.93;101185.53;10423385;28;20053;-72
2024/01/08 00:34:29;;;;;;;0.55;0.30;;;;;;;2.43;55.00;101179.38;10416880;28;20054;-74
2024/01/08 00:39:31;;;;;;;3.17;0.40;;;;;;;2.42;55.22;101182.97;10420638;28;20053;-72
2024/01/08 00:44:32;;;;;;;0.30;0.20;;;;;;;2.47;55.51;101190.63;10436932;28;20412;-71
2024/01/08 00:49:34;;;;;;;1.17;0.40;;;;;;;2.51;54.96;101182.38;10438895;28;20129;-72
2024/01/08 00:54:35;;;;;;;1.15;0.28;;;;;;;2.49;55.48;101186.94;10422293;28;20041;-70
2024/01/08 00:59:37;;;;;;;2.03;0.43;;;;;;;2.47;55.60;101186.19;10436987;28;20041;-71
2024/01/08 01:04:38;;;;;;;0.63;0.30;;;;;;;2.50;54.93;101188.63;10439596;28;20056;-72
2024/01/08 01:09:40;;;;;;;1.85;0.35;;;;;;;2.53;55.50;101187.59;10439946;28;20059;-71
2024/01/08 01:14:41;;;;;;;0.73;0.20;;;;;;;2.51;55.12;101193.00;10435198;28;20137;-72
2024/01/08 01:19:43;;;;;;;0.38;0.20;;;;;;;2.53;54.98;101191.06;10422918;28;20063;-72
2024/01/08 01:24:44;;;;;;;2.78;0.57;;;;;;;2.47;55.23;101201.22;10426792;28;20503;-71
2024/01/08 01:29:45;;;;;;;2.20;0.75;;;;;;;2.39;55.65;101204.44;10438395;28;20055;-71
2024/01/08 01:34:47;;;;;;;2.17;0.50;;;;;;;2.29;55.90;101208.63;10421609;28;20080;-71
2024/01/08 01:39:49;;;;;;;1.73;0.75;;;;;;;2.27;55.61;101199.91;10430072;28;20049;-71
2024/01/08 01:44:50;;;;;;;1.85;0.63;;;;;;;2.17;55.91;101203.19;10436102;28;20056;-72
2024/01/08 01:49:53;;;;;;;3.80;0.52;;;;;;;2.08;56.55;101206.44;10420039;28;20053;-70
2024/01/08 01:54:55;;;;;;;1.85;0.60;;;;;;;2.03;56.03;101208.53;10414958;28;20061;-71
2024/01/08 01:59:56;;;;;;;1.70;0.70;;;;;;;1.96;56.72;101201.94;10417322;28;20056;-71
2024/01/08 02:04:58;;;;;;;1.20;0.50;;;;;;;2.01;55.94;101198.97;10422166;28;20389;-71
2024/01/08 02:10:00;;;;;;;1.05;0.60;;;;;;;2.05;56.06;101206.63;10420003;28;20172;-71
2024/01/08 02:15:04;;;;;;;2.55;0.60;;;;;;;2.06;56.30;101195.06;10402857;28;20041;-71
2024/01/08 02:20:07;;;;;;;5.50;0.75;;;;;;;2.04;56.92;101199.63;10416753;28;20074;-70
2024/01/08 02:25:08;;;;;;;1.20;0.50;;;;;;;2.09;56.06;101200.16;10426825;28;20049;-70
2024/01/08 02:30:10;;;;;;;1.00;0.40;;;;;;;2.13;56.31;101204.34;10431362;28;20072;-72
2024/01/08 02:35:12;;;;;;;4.30;0.52;;;;;;;2.15;56.01;101204.22;10431477;28;20041;-71
2024/01/08 02:40:13;;;;;;;1.13;0.40;;;;;;;2.17;56.36;101204.97;10441715;28;20045;-71
2024/01/08 02:45:15;;;;;;;0.70;0.40;;;;;;;2.17;56.48;101216.44;10443481;28;20052;-71
2024/01/08 02:50:17;;;;;;;0.63;0.30;;;;;;;2.19;55.85;101203.06;10429772;28;20045;-71
2024/01/08 02:55:19;;;;;;;0.43;0.30;;;;;;;2.23;55.59;101196.59;10419125;28;20052;-71
2024/01/08 03:00:20;;;;;;;1.02;0.52;;;;;;;2.21;55.89;101202.97;10441147;28;20045;-71
2024/01/08 03:05:22;;;;;;;0.82;0.40;;;;;;;2.20;56.22;101210.09;10424548;28;20480;-71
2024/01/08 03:10:23;;;;;;;1.23;0.40;;;;;;;2.21;56.06;101206.47;10428045;28;20045;-71
2024/01/08 03:15:28;;;;;;;2.22;0.30;;;;;;;2.21;55.84;101210.94;10434975;28;20048;-71
2024/01/08 03:20:29;;;;;;;1.48;0.65;;;;;;;2.25;55.57;101210.66;10452050;28;20095;-71
2024/01/08 03:25:31;;;;;;;0.80;0.40;;;;;;;2.15;55.76;101207.75;10439796;28;20041;-71
2024/01/08 03:30:32;;;;;;;0.70;0.60;;;;;;;2.22;55.99;101205.53;10429118;28;20064;-72
2024/01/08 03:35:34;;;;;;;2.05;0.30;;;;;;;2.24;55.57;101210.75;10433100;28;20504;-71
2024/01/08 03:40:35;;;;;;;0.77;0.45;;;;;;;2.23;55.75;101209.88;10420953;28;20044;-70
2024/01/08 03:45:37;;;;;;;0.45;0.30;;;;;;;2.20;55.91;101209.25;10418698;28;20043;-70
2024/01/08 03:50:38;;;;;;;0.73;0.30;;;;;;;2.18;55.38;101206.69;10428313;28;20038;-71
2024/01/08 03:55:40;;;;;;;0.85;0.45;;;;;;;2.10;55.68;101216.94;10402203;28;20152;-72
2024/01/08 04:00:42;;;;;;;0.40;0.40;;;;;;;2.16;55.16;101213.88;10406282;28;20049;-72
2024/01/08 04:05:43;;;;;;;1.98;0.70;;;;;;;2.15;54.86;101212.19;10427925;28;20037;-72
2024/01/08 04:10:45;;;;;;;1.15;0.40;;;;;;;2.08;54.97;101217.03;10438435;28;20057;-72
2024/01/08 04:15:46;;;;;;;0.93;0.40;;;;;;;2.14;54.84;101216.63;10422164;28;20053;-72
2024/01/08 04:20:47;;;;;;;1.45;0.70;;;;;;;2.07;54.96;101214.47;10439123;28;20048;-71
2024/01/08 04:25:49;;;;;;;3.83;0.30;;;;;;;2.11;55.08;101213.31;10433989;28;20111;-71
2024/01/08 04:30:50;;;;;;;1.77;0.70;;;;;;;2.13;55.09;101212.31;10436468;28;20063;-72
2024/01/08 04:35:52;;;;;;;1.65;0.40;;;;;;;2.14;54.84;101216.63;10436282;28;20057;-71
2024/01/08 04:40:53;;;;;;;1.45;0.43;;;;;;;2.16;55.33;101221.84;10436802;28;20065;-70
2024/01/08 04:45:55;;;;;;;1.75;0.50;;;;;;;2.17;54.94;101234.13;10416471;28;20069;-72
2024/01/08 04:50:56;;;;;;;0.90;0.30;;;;;;;2.18;54.74;101219.94;10430402;28;20381;-72
2024/01/08 04:55:58;;;;;;;5.80;1.75;;;;;;;2.05;55.41;101219.03;10433898;28;20169;-71
2024/01/08 05:00:59;;;;;;;2.67;1.35;;;;;;;1.97;56.18;101225.69;10438926;28;20057;-72
2024/01/08 05:06:01;;;;;;;3.05;1.05;;;;;;;1.94;55.94;101233.84;10443765;28;20048;-70
2024/01/08 05:11:04;;;;;;;2.78;1.15;;;;;;;1.93;55.98;101234.78;10442032;28;20049;-71
2024/01/08 05:16:06;;;;;;;2.00;1.08;;;;;;;1.93;56.40;101229.47;10447413;28;20056;-73
2024/01/08 05:21:12;;;;;;;2.03;0.70;;;;;;;1.90;56.51;101247.41;10426918;28;21226;-72
2024/01/08 05:26:14;;;;;;;2.80;1.05;;;;;;;1.89;57.01;101235.91;10404250;28;20053;-72
2024/01/08 05:31:15;;;;;;;1.40;0.70;;;;;;;1.87;57.03;101243.13;10406542;28;20042;-72
2024/01/08 05:36:17;;;;;;;0.93;0.70;;;;;;;1.92;56.97;101238.41;10421802;28;20049;-71
2024/01/08 05:41:20;;;;;;;0.80;0.60;;;;;;;1.95;56.56;101246.13;10421950;28;20061;-71
2024/01/08 05:46:22;;;;;;;1.30;0.60;;;;;;;1.93;55.87;101252.50;10406148;28;20041;-71
2024/01/08 05:51:27;;;;;;;0.95;0.50;;;;;;;1.98;55.69;101248.59;10421060;28;20403;-71
2024/01/08 05:56:31;;;;;;;1.17;0.57;;;;;;;1.98;55.90;101251.25;10424752;28;20037;-71
2024/01/08 06:01:34;;;;;;;1.80;0.60;;;;;;;2.02;55.78;101248.41;10426761;28;20598;-71
2024/01/08 06:06:35;;;;;;;1.63;0.80;;;;;;;2.03;56.16;101253.59;10430570;28;20499;-72
2024/01/08 06:11:37;;;;;;;1.15;0.55;;;;;;;2.06;56.11;101250.75;10428868;28;20064;-71
2024/01/08 06:16:38;;;;;;;1.38;0.60;;;;;;;2.07;55.72;101256.91;10425415;28;20423;-71
2024/01/08 06:21:40;;;;;;;1.42;0.50;;;;;;;2.15;55.47;101260.78;10418511;28;20055;-71
2024/01/08 06:26:41;;;;;;;1.98;1.40;;;;;;;2.11;55.57;101266.38;10402544;28;20038;-71
2024/01/08 06:31:44;;;;;;;2.83;0.80;;;;;;;2.06;56.45;101261.38;10417246;28;20107;-71
2024/01/08 06:36:45;;;;;;;0.95;0.63;;;;;;;2.07;55.94;101267.50;10416688;28;20044;-71
2024/01/08 06:41:47;;;;;;;1.75;0.88;;;;;;;2.02;55.69;101270.47;10422051;28;20038;-71
2024/01/08 06:46:48;;;;;;;2.10;0.80;;;;;;;1.94;56.17;101278.91;10413644;28;20485;-71
2024/01/08 06:51:50;;;;;;;1.48;0.60;;;;;;;1.89;56.04;101274.84;10410452;28;20060;-70
2024/01/08 06:56:51;;;;;;;1.33;0.90;;;;;;;1.91;55.20;101278.25;10427742;28;20105;-70
2024/01/08 07:01:53;;;;;;;1.75;0.70;;;;;;;1.93;55.04;101286.97;10429718;28;20045;-71
2024/01/08 07:06:54;;;;;;;2.58;1.00;;;;;;;1.98;54.98;101284.88;10425514;28;20049;-70
2024/01/08 07:11:57;;;;;;;1.98;0.60;;;;;;;1.95;55.15;101298.31;10431306;28;20048;-71
2024/01/08 07:16:58;;;;;;;1.83;0.60;;;;;;;1.85;54.82;101297.19;10433530;28;20056;-70
2024/01/08 07:21:59;;;;;;;1.58;0.63;;;;;;;1.87;55.19;101305.91;10433709;28;20104;-69
2024/01/08 07:27:01;;;;;;;2.63;0.70;;;;;;;1.90;54.97;101308.38;10454493;28;20097;-69
2024/01/08 07:32:02;;;;;;;4.25;0.90;;;;;;;1.87;55.08;101316.50;10467162;28;20103;-69
2024/01/08 07:37:04;;;;;;;2.58;0.82;;;;;;;1.82;54.85;101314.16;10429156;28;20041;-69
2024/01/08 07:42:06;;;;;;;2.95;0.85;;;;;;;1.73;54.91;101318.22;10435547;28;20048;-67
2024/01/08 07:47:07;;;;;;;2.80;0.98;;;;;;;1.75;54.83;101331.38;10430209;28;20104;-68
2024/01/08 07:52:09;;;;;;;2.85;1.23;;;;;;;1.74;53.99;101330.53;10427421;28;20053;-69
2024/01/08 07:57:10;;;;;;;1.45;1.00;;;;;;;1.59;54.35;101336.75;10430874;28;20519;-68
2024/01/08 08:02:12;;;;;;;2.38;1.10;;;;;;;1.57;54.06;101349.25;10424413;28;20045;-67
2024/01/08 08:07:14;;;;;;;7.18;1.60;;;;;;;1.54;54.09;101349.44;10417826;28;20725;-67
2024/01/08 08:12:15;;;;;;;2.70;1.00;;;;;;;1.50;53.88;101356.72;10414900;28;20045;-68
2024/01/08 08:17:17;;;;;;;1.67;0.88;;;;;;;1.49;53.65;101362.97;10413685;28;20710;-68
2024/01/08 08:22:19;;;;;;;1.45;0.68;;;;;;;1.56;54.06;101366.09;10415563;28;20038;-68
2024/01/08 08:27:21;;;;;;;6.70;1.25;;;;;;;1.49;53.50;101362.97;10396908;28;20043;-67
2024/01/08 08:32:23;;;;;;;1.95;0.70;;;;;;;1.55;53.29;101364.41;10412446;28;20115;-68
2024/01/08 08:37:24;;;;;;;3.75;1.13;;;;;;;1.58;53.17;101372.19;10422497;28;20077;-67
2024/01/08 08:42:46;;;;;;;2.05;0.73;;;;;;;1.46;53.89;101371.13;10402874;28;20053;-66
2024/01/08 08:47:47;;;;;;;1.70;0.80;;;;;;;1.33;53.14;101372.78;10401662;28;20669;-68
2024/01/08 08:52:49;;;;;;;2.35;0.80;;;;;;;1.16;53.70;101379.91;10418107;28;20123;-68
2024/01/08 08:57:51;;;;;;;2.30;0.95;;;;;;;1.07;53.36;101383.09;10400967;28;20045;-67
2024/01/08 09:02:54;;;;;;;4.85;0.85;;;;;;;0.94;53.30;101406.78;10419835;28;20606;-65
2024/01/08 09:07:56;;;;;;;2.40;1.13;;;;;;;0.80;53.49;101414.66;10415468;28;20075;-64
2024/01/08 09:12:57;;;;;;;3.35;0.90;;;;;;;0.69;53.30;101411.75;10411538;28;20395;-66
2024/01/08 09:17:59;;;;;;;2.75;0.88;;;;;;;0.59;53.09;101412.28;10418260;28;20149;-66
2024/01/08 09:23:01;;;;;;;2.35;1.13;;;;;;;0.48;53.86;101425.25;10414403;28;20447;-64
2024/01/08 09:28:02;;;;;;;2.33;0.60;;;;;;;0.42;53.78;101420.28;10408394;28;20049;-64
2024/01/08 09:33:04;;;;;;;2.42;1.20;;;;;;;0.35;53.57;101425.03;10416144;28;20156;-68
2024/01/08 09:38:05;;;;;;;1.58;0.70;;;;;;;0.31;53.26;101434.06;10400513;28;20049;-68
2024/01/08 09:43:08;;;;;;;7.80;2.95;;;;;;;0.38;52.81;101431.97;10417096;28;20480;-68
2024/01/08 09:48:10;;;;;;;3.47;0.85;;;;;;;0.38;52.51;101445.19;10392414;28;20037;-64
2024/01/08 09:53:14;;;;;;;4.95;1.08;;;;;;;0.30;52.65;101453.53;10410719;28;20049;-65
2024/01/08 09:58:17;;;;;;;4.20;0.60;;;;;;;0.19;52.67;101446.16;10413894;28;20061;-69
2024/01/08 10:03:19;;;;;;;1.92;0.70;;;;;;;0.17;52.93;101439.25;10418902;28;20514;-69
2024/01/08 10:08:21;;;;;;;2.70;0.73;;;;;;;0.25;53.14;101449.44;10417947;28;20368;-69
2024/01/08 10:13:22;;;;;;;4.63;1.00;;;;;;;0.27;52.63;101440.47;10419564;28;20042;-69
2024/01/08 10:18:24;;;;;;;1.42;0.63;;;;;;;0.34;52.66;101441.84;10386960;28;20048;-70
2024/01/08 10:23:26;;;;;;;1.30;0.85;;;;;;;0.35;52.27;101442.72;10412694;28;20116;-69
2024/01/08 10:28:33;;;;;;;1.95;0.90;;;;;;;0.39;52.51;101434.53;10416249;28;20068;-68
2024/01/08 10:33:35;;;;;;;2.80;0.82;;;;;;;0.37;52.19;101432.91;10412748;28;20042;-70
2024/01/08 10:38:38;;;;;;;4.38;0.93;;;;;;;0.36;52.56;101433.84;10377627;28;20119;-69
2024/01/08 10:43:39;;;;;;;2.47;0.70;;;;;;;0.46;52.39;101435.06;10412588;28;20045;-70
2024/01/08 10:48:43;;;;;;;1.88;0.90;;;;;;;0.53;52.82;101430.25;10411799;28;20064;-70
2024/01/08 10:53:46;;;;;;;2.70;0.82;;;;;;;0.59;52.54;101427.28;10415931;28;20386;-67
2024/01/08 10:59:04;;;;;;;3.25;1.00;;;;;;;0.66;52.47;101420.72;10415071;28;20057;-68
2024/01/08 11:04:06;;;;;;;;;;;;;;;0.75;52.53;101416.69;10417527;28;20060;-69
2024/01/08 11:09:25;;;;;;;3.65;1.20;;;;;;;0.76;51.71;101416.59;10416254;28;19925;-63
2024/01/08 11:14:29;;;;;;;3.28;1.25;;;;;;;0.79;51.71;101427.03;10415652;28;20088;-69
2024/01/08 11:19:30;;;;;;;1.63;0.75;;;;;;;0.81;51.49;101428.72;10412192;28;20045;-70
2024/01/08 11:24:32;;;;;;;1.98;0.75;;;;;;;0.79;51.32;101432.31;10413973;28;20064;-64
2024/01/08 11:29:34;;;;;;;2.13;0.90;;;;;;;0.85;51.10;101436.44;10417145;28;20684;-67
2024/01/08 11:34:53;;;;;;;2.45;0.93;;;;;;;0.89;50.97;101439.72;10418135;28;20045;-65
2024/01/08 11:39:55;;;;;;;2.97;1.08;;;;;;;0.93;49.97;101431.56;10417872;28;20052;-68
2024/01/08 11:44:59;;;;;;;3.20;1.20;;;;;;;0.95;50.43;101436.75;10416428;28;20136;-67
2024/01/08 11:50:00;;;;;;;1.52;0.77;;;;;;;0.94;50.44;101429.75;10417203;28;20044;-66
2024/01/08 11:55:04;;;;;;;4.80;1.60;;;;;;;1.01;50.04;101436.41;10419414;28;20783;-67
2024/01/08 12:00:19;;;;;;;3.70;1.80;;;;;;;1.01;50.30;101431.13;10422475;28;20469;-65
2024/01/08 12:05:21;;;;;;;5.57;1.60;;;;;;;1.05;49.55;101437.06;10423444;28;20087;-66
2024/01/08 12:10:23;;;;;;;2.42;1.08;;;;;;;1.01;49.71;101446.13;10420466;28;20504;-64
2024/01/08 12:15:27;;;;;;;3.35;1.50;;;;;;;1.08;49.71;101429.81;10424407;28;20046;-68
2024/01/08 12:20:29;;;;;;;5.32;1.60;;;;;;;0.99;49.82;101433.84;10441020;28;20045;-68
2024/01/08 12:25:30;;;;;;;6.40;1.98;;;;;;;0.92;49.09;101443.06;10420116;28;20041;-69
2024/01/08 12:30:32;;;;;;;5.40;2.25;;;;;;;0.87;49.44;101439.84;10463592;28;20112;-69
2024/01/08 12:35:36;;;;;;;7.00;1.67;;;;;;;0.79;48.99;101453.50;10427241;28;20068;-67
2024/01/08 12:40:38;;;;;;;4.88;1.73;;;;;;;0.79;49.15;101452.66;10977302;23;20174;-69
2024/01/08 12:45:50;;;;;;;4.97;1.67;;;;;;;0.71;49.82;101457.50;10489006;28;20044;-67
2024/01/08 12:50:51;;;;;;;3.95;1.58;;;;;;;0.69;48.88;101459.38;10497641;28;20070;-70
2024/01/08 12:55:53;;;;;;;6.32;1.67;;;;;;;0.65;48.64;101458.69;10481213;28;20047;-70
2024/01/08 13:00:55;;;;;;;6.03;2.35;;;;;;;0.68;49.44;101465.63;10475938;28;20128;-69
2024/01/08 13:05:57;;;;;;;7.30;2.55;;;;;;;0.70;48.57;101464.59;10499917;28;20036;-70
2024/01/08 13:10:59;;;;;;;4.28;2.33;;;;;;;0.71;48.79;101457.50;10497353;28;20091;-73
2024/01/08 13:16:01;;;;;;;7.20;2.13;;;;;;;0.70;48.72;101456.66;10489151;28;20589;-72
2024/01/08 13:21:03;;;;;;;5.82;2.60;;;;;;;0.71;49.36;101466.31;10482233;28;20052;-70
2024/01/08 13:26:05;;;;;;;6.35;2.55;;;;;;;0.70;48.93;101467.22;10484805;28;20052;-70
2024/01/08 13:31:08;;;;;;;4.60;1.70;;;;;;;0.63;49.10;101470.28;10478805;28;20048;-68
2024/01/08 13:36:12;;;;;;;8.57;1.90;;;;;;;0.66;49.44;101480.72;10479893;28;20036;-69
2024/01/08 13:41:14;;;;;;;7.43;2.72;;;;;;;0.65;48.77;101489.59;10450365;28;20068;-69
2024/01/08 13:46:16;;;;;;;8.30;2.50;;;;;;;0.57;49.60;101498.81;10448133;28;20045;-69
2024/01/08 13:51:17;;;;;;;5.38;2.08;;;;;;;0.44;49.25;101496.91;10423760;28;20041;-70
2024/01/08 13:56:19;;;;;;;7.80;2.78;;;;;;;0.33;49.91;101498.31;10420888;28;20040;-68
2024/01/08 14:01:21;;;;;;;7.40;2.75;;;;;;;0.32;49.50;101511.66;10441115;28;20122;-69
2024/01/08 14:06:22;;;;;;;7.20;2.78;;;;;;;0.10;50.23;101514.53;10424664;28;20041;-68
2024/01/08 14:11:24;;;;;;;8.45;2.80;;;;;;;-0.02;49.73;101518.66;10441575;28;20137;-69
2024/01/08 14:16:26;;;;;;;7.65;3.38;;;;;;;-0.04;49.84;101525.81;10419636;28;20041;-69
2024/01/08 14:21:27;;;;;;;7.22;3.08;;;;;;;-0.20;50.00;101523.09;10437574;28;20511;-68
2024/01/08 14:26:28;;;;;;;9.27;3.75;;;;;;;-0.36;50.11;101533.59;10437963;28;20131;-69
2024/01/08 14:31:30;;;;;;;8.38;3.25;;;;;;;-0.57;50.74;101524.06;10406703;28;20099;-69
2024/01/08 14:36:31;;;;;;;9.82;3.72;;;;;;;-0.77;50.93;101544.41;10435124;28;20041;-72
2024/01/08 14:41:33;;;;;;;7.45;2.85;;;;;;;-0.76;51.08;101537.34;10409549;28;20136;-71
2024/01/08 14:46:34;;;;;;;7.85;3.38;;;;;;;-0.92;51.30;101539.84;10440004;28;20052;-69
2024/01/08 14:51:36;;;;;;;10.23;3.63;;;;;;;-1.06;52.00;101548.41;10433630;28;20440;-70
2024/01/08 14:56:39;;;;;;;6.97;2.83;;;;;;;-1.18;51.58;101547.19;10431550;28;20045;-70
2024/01/08 15:01:40;;;;;;;9.63;3.22;;;;;;;-1.26;51.44;101560.72;10439586;28;20048;-71
2024/01/08 15:06:42;;;;;;;10.00;3.55;;;;;;;-1.34;51.51;101562.00;10426104;28;20167;-68
2024/01/08 15:11:43;;;;;;;9.18;3.92;;;;;;;-1.52;52.18;101574.22;10454170;28;20451;-71
2024/01/08 15:16:45;;;;;;;8.27;3.53;;;;;;;-1.50;52.07;101577.63;10443786;28;20067;-68
2024/01/08 15:21:50;;;;;;;8.77;3.10;;;;;;;-1.61;51.70;101576.34;10447323;28;20040;-70
2024/01/08 15:26:52;;;;;;;6.82;3.08;;;;;;;-1.72;52.16;101570.69;10452070;28;20045;-67
2024/01/08 15:31:53;;;;;;;10.25;3.63;;;;;;;-1.77;52.61;101577.09;10445859;28;20044;-72
2024/01/08 15:36:55;;;;;;;7.85;2.90;;;;;;;-1.88;52.43;101577.53;10446062;28;20038;-68
2024/01/08 15:41:56;;;;;;;8.35;3.25;;;;;;;-1.91;52.70;101582.97;10441730;28;20045;-69
2024/01/08 15:46:58;;;;;;;8.88;3.72;;;;;;;-2.01;52.97;101593.88;10432426;28;20076;-66
2024/01/08 15:52:00;;;;;;;7.78;3.50;;;;;;;-2.10;53.01;101588.13;10444186;28;20258;-66
2024/01/08 15:57:02;;;;;;;10.75;3.85;;;;;;;-2.18;53.14;101603.41;10444485;28;20064;-66
2024/01/08 16:02:04;;;;;;;10.55;4.43;;;;;;;-2.18;53.33;101606.03;10421513;28;20045;-66
2024/01/08 16:07:05;;;;;;;11.40;3.53;;;;;;;-2.24;53.10;101630.84;10439568;28;20076;-66
2024/01/08 16:12:07;;;;;;;9.05;2.70;;;;;;;-2.24;53.35;101634.31;10441252;28;20045;-62
2024/01/08 16:17:08;;;;;;;9.90;4.10;;;;;;;-2.27;53.33;101639.72;10448277;28;20037;-62
2024/01/08 16:22:10;;;;;;;13.07;3.95;;;;;;;-2.34;53.46;101635.63;10455689;28;20110;-64
2024/01/08 16:27:11;;;;;;;8.25;3.30;;;;;;;-2.40;53.68;101644.59;10447292;28;20056;-62
2024/01/08 16:32:13;;;;;;;13.45;3.85;;;;;;;-2.45;53.67;101648.34;10453288;28;20484;-63
2024/01/08 16:37:14;;;;;;;8.23;3.25;;;;;;;-2.52;53.92;101644.25;10452585;28;20079;-62
2024/01/08 16:42:15;;;;;;;9.50;2.95;;;;;;;-2.58;53.84;101655.88;10445591;28;20052;-63
2024/01/08 16:47:20;;;;;;;8.60;3.08;;;;;;;-2.60;54.00;101655.91;10449302;28;20049;-63
2024/01/08 16:52:22;;;;;;;6.65;2.60;;;;;;;-2.63;53.99;101670.97;10426908;28;20385;-62
2024/01/08 16:57:23;;;;;;;5.80;2.72;;;;;;;-2.62;53.76;101670.91;10445262;28;20041;-65
2024/01/08 17:02:25;;;;;;;9.07;4.03;;;;;;;-2.63;54.06;101676.22;10436493;28;20056;-64
2024/01/08 17:07:26;;;;;;;10.25;3.75;;;;;;;-2.67;54.34;101672.84;10442818;28;20067;-65
2024/01/08 17:12:28;;;;;;;7.18;3.50;;;;;;;-2.75;54.31;101680.19;10441522;28;20061;-65
2024/01/08 17:17:29;;;;;;;9.63;3.35;;;;;;;-2.76;53.90;101694.28;10443062;28;20048;-64
2024/01/08 17:22:31;;;;;;;10.50;4.13;;;;;;;-2.72;53.68;101697.66;10438924;28;20047;-65
2024/01/08 17:27:32;;;;;;;6.90;2.67;;;;;;;-2.71;53.69;101715.13;10439311;28;20068;-65
2024/01/08 17:32:35;;;;;;;9.07;3.22;;;;;;;-2.79;53.98;101721.53;10438793;28;20368;-64
2024/01/08 17:37:37;;;;;;;9.07;3.67;;;;;;;-2.79;53.85;101726.78;10435363;28;20041;-64
2024/01/08 17:42:38;;;;;;;11.50;3.95;;;;;;;-2.80;53.69;101735.63;10438479;28;20403;-64
2024/01/08 17:47:40;;;;;;;10.75;3.45;;;;;;;-2.87;53.90;101736.75;10433954;28;20051;-66
2024/01/08 17:52:41;;;;;;;12.77;4.40;;;;;;;-2.89;54.39;101735.94;10417683;28;20626;-66
2024/01/08 17:57:43;;;;;;;22.58;6.20;;;;;;;-2.85;53.77;101747.22;10419099;28;20060;-66
2024/01/08 18:02:45;;;;;;;14.85;4.32;;;;;;;-2.86;53.80;101749.00;10434101;28;20045;-65
2024/01/08 18:07:46;;;;;;;8.93;3.53;;;;;;;-2.86;53.95;101749.00;10440222;28;20048;-63
2024/01/08 18:12:48;;;;;;;11.35;3.92;;;;;;;-2.93;53.96;101752.75;10438542;28;20706;-62
2024/01/08 18:17:51;;;;;;;10.15;3.85;;;;;;;-2.93;53.92;101762.44;10438797;28;20512;-62
2024/01/08 18:22:52;;;;;;;15.88;3.92;;;;;;;-2.94;54.10;101768.59;10437719;28;20049;-62
2024/01/08 18:27:53;;;;;;;8.15;3.15;;;;;;;-3.00;53.98;101778.44;10438563;28;20148;-62
2024/01/08 18:32:55;;;;;;;12.43;3.72;;;;;;;-3.02;53.86;101777.63;10436037;28;20060;-63
2024/01/08 18:37:56;;;;;;;8.63;3.60;;;;;;;-3.06;53.80;101776.00;10421595;28;20110;-62
2024/01/08 18:42:58;;;;;;;14.38;4.60;;;;;;;-3.08;53.93;101783.09;10434533;28;20520;-61
2024/01/08 18:47:59;;;;;;;11.68;3.80;;;;;;;-3.11;54.02;101777.94;10435813;28;20051;-62
2024/01/08 18:53:01;;;;;;;12.10;3.42;;;;;;;-3.15;54.29;101778.09;10416090;28;20067;-63
2024/01/08 18:58:04;;;;;;;10.82;4.72;;;;;;;-3.17;53.99;101779.91;10438513;28;20118;-62
2024/01/08 19:03:08;;;;;;;8.30;3.45;;;;;;;-3.15;54.27;101786.00;10449575;28;20075;-66
2024/01/08 19:08:09;;;;;;;11.88;4.20;;;;;;;-3.17;54.35;101793.06;10444217;28;20057;-61
2024/01/08 19:13:13;;;;;;;14.15;4.00;;;;;;;-3.24;54.37;101790.66;10454047;28;20067;-63
2024/01/08 19:18:14;;;;;;;13.32;3.45;;;;;;;-3.23;54.90;101802.03;10435116;28;20048;-62
2024/01/08 19:23:16;;;;;;;11.48;3.65;;;;;;;-3.24;54.43;101823.94;10433978;28;20051;-61
2024/01/08 19:28:18;;;;;;;15.15;3.75;;;;;;;-3.24;54.30;101814.31;10440722;28;20457;-62
2024/01/08 19:33:19;;;;;;;10.65;4.07;;;;;;;-3.24;54.54;101818.69;10430828;28;20056;-62
2024/01/08 19:38:22;;;;;;;11.90;3.97;;;;;;;-3.24;54.26;101811.69;10438057;28;20045;-61
2024/01/08 19:43:24;;;;;;;9.57;2.78;;;;;;;-3.29;54.65;101812.75;10436415;28;20045;-61
2024/01/08 19:48:26;;;;;;;12.68;3.58;;;;;;;-3.32;54.81;101825.97;10438917;28;20048;-63
2024/01/08 19:53:28;;;;;;;10.07;3.88;;;;;;;-3.34;54.56;101831.28;10437742;28;20049;-61
2024/01/08 19:58:29;;;;;;;10.63;4.10;;;;;;;-3.32;54.67;101828.59;10440262;28;20459;-65
2024/01/08 20:03:30;;;;;;;11.25;4.25;;;;;;;-3.35;55.03;101832.22;10443245;28;20391;-61
2024/01/08 20:08:32;;;;;;;10.43;4.22;;;;;;;-3.36;54.87;101827.84;10441592;28;20496;-60
2024/01/08 20:13:34;;;;;;;10.07;3.42;;;;;;;-3.32;54.49;101824.19;10439338;28;20059;-61
2024/01/08 20:18:35;;;;;;;15.68;3.60;;;;;;;-3.40;54.82;101820.97;10438511;28;20040;-61
2024/01/08 20:23:37;;;;;;;10.13;3.20;;;;;;;-3.41;54.77;101827.16;10447261;28;20063;-62
2024/01/08 20:28:39;;;;;;;10.20;3.53;;;;;;;-3.44;55.01;101814.09;10423243;28;20067;-61
2024/01/08 20:33:41;;;;;;;12.20;4.18;;;;;;;-3.49;54.80;101810.78;10441319;28;20064;-63
2024/01/08 20:38:42;;;;;;;12.75;4.55;;;;;;;-3.48;55.12;101813.31;10442607;28;20075;-63
2024/01/08 20:43:44;;;;;;;11.32;4.10;;;;;;;-3.47;54.45;101822.09;10443164;28;20060;-62
2024/01/08 20:48:48;;;;;;;11.07;3.40;;;;;;;-3.48;54.88;101818.59;10446411;28;20053;-61
2024/01/08 20:53:49;;;;;;;11.48;2.92;;;;;;;-3.48;54.79;101826.47;10442896;28;20522;-61
2024/01/08 20:58:50;;;;;;;8.82;3.63;;;;;;;-3.55;54.93;101817.06;10432566;28;20049;-61
2024/01/08 21:03:52;;;;;;;12.30;4.32;;;;;;;-3.56;55.27;101820.59;10436447;28;20041;-61
2024/01/08 21:08:53;;;;;;;7.53;2.90;;;;;;;-3.60;55.25;101819.84;10438057;28;20037;-63
2024/01/08 21:13:55;;;;;;;11.02;3.33;;;;;;;-3.58;55.23;101827.69;10441642;28;20037;-61
2024/01/08 21:18:57;;;;;;;7.60;3.33;;;;;;;-3.59;55.19;101828.59;10436280;28;20056;-61
2024/01/08 21:23:59;;;;;;;13.48;3.45;;;;;;;-3.68;55.61;101827.09;10435297;28;20053;-61
2024/01/08 21:29:01;;;;;;;10.57;4.20;;;;;;;-3.67;55.38;101820.97;10444421;28;20040;-62
2024/01/08 21:34:02;;;;;;;10.57;4.20;;;;;;;-3.69;55.46;101822.78;10446128;28;20076;-61
2024/01/08 21:39:04;;;;;;;8.07;3.28;;;;;;;-3.68;55.96;101826.25;10439587;28;20059;-60
2024/01/08 21:44:05;;;;;;;13.57;4.05;;;;;;;-3.65;55.79;101826.16;10436901;28;20057;-60
2024/01/08 21:49:07;;;;;;;7.00;2.53;;;;;;;-3.69;55.80;101817.53;10418127;28;20407;-61
2024/01/08 21:54:09;;;;;;;8.93;3.15;;;;;;;-3.69;55.69;101822.78;10444334;28;20496;-61
2024/01/08 21:59:10;;;;;;;7.50;3.45;;;;;;;-3.68;55.68;101828.88;10437976;28;20073;-61
2024/01/08 22:04:12;;;;;;;8.73;3.95;;;;;;;-3.66;55.69;101838.41;10417749;28;20411;-61
2024/01/08 22:09:13;;;;;;;10.85;4.47;;;;;;;-3.64;55.89;101831.34;10439713;28;20065;-59
2024/01/08 22:14:15;;;;;;;11.40;3.72;;;;;;;-3.66;55.67;101821.81;10437817;28;20045;-60
2024/01/08 22:19:16;;;;;;;10.57;3.78;;;;;;;-3.70;56.16;101820.19;10432329;28;20144;-61
2024/01/08 22:24:18;;;;;;;9.88;4.10;;;;;;;-3.67;56.51;101831.47;10438687;28;20388;-61
2024/01/08 22:29:20;;;;;;;9.07;4.10;;;;;;;-3.71;56.01;101832.47;10440596;28;20076;-61
2024/01/08 22:34:21;;;;;;;11.00;4.18;;;;;;;-3.75;56.33;101838.72;10438147;28;20045;-61
2024/01/08 22:39:23;;;;;;;14.07;4.43;;;;;;;-3.74;56.02;101832.56;10437275;28;20047;-62
2024/01/08 22:44:24;;;;;;;8.57;3.42;;;;;;;-3.75;56.26;101829.97;10432367;28;20053;-61
2024/01/08 22:49:26;;;;;;;12.10;3.90;;;;;;;-3.76;56.43;101841.41;10423593;28;20437;-64
2024/01/08 22:54:28;;;;;;;10.15;3.58;;;;;;;-3.79;56.39;101824.81;10438313;28;20092;-63
2024/01/08 22:59:29;;;;;;;11.80;4.05;;;;;;;-3.75;56.27;101828.22;10440916;28;20048;-62
2024/01/08 23:04:30;;;;;;;8.95;2.88;;;;;;;-3.74;56.49;101834.31;10438069;28;20076;-62
2024/01/08 23:09:32;;;;;;;11.38;3.65;;;;;;;-3.78;56.90;101829.16;10427430;28;20037;-63
2024/01/08 23:14:33;;;;;;;13.07;3.72;;;;;;;-3.81;56.81;101833.63;10452568;28;20063;-64